Austintown, Ohio
Current Conditions -  °F | °C
As of 6:51 AM on Friday 24 Oct 2014 (Local Time) from KYNG Reporting Station
Light Fog Light Fog  
Wind Chill: 36°   Ceiling: Unl
Heat Index: 36°   Visibility: 10mi
Dew Point: 35°   Wind: 3mph
Humidity: 97%   Direction: 230°SW
Pressure: 30.08"   Gusts: NA
Location:  41.1°N, 80.76°W
Report Text: KYNG 241051Z 23003KT 10SM MIFG SCT250 02/02 A3008 RMK AO2 SLP194 T00220017
Loading
Personal Weather Stations






























Interactive Weather Map
Tropical Storm Tracking
New forecast layout! Learn more

10-Day Weather Forecast

Advertisements
Track Severe Weather on mobile